createdAt,value
2023-02-22T00:02:16.155Z,7.47
2023-02-22T00:04:43.181Z,9.63
2023-02-22T00:07:10.148Z,9.35
2023-02-22T00:09:37.286Z,10.20
2023-02-22T00:12:04.458Z,9.75
2023-02-22T00:14:31.377Z,9.73
2023-02-22T00:16:59.802Z,11.38
2023-02-22T00:19:28.147Z,9.48
2023-02-22T00:21:55.327Z,9.93
2023-02-22T00:24:25.144Z,11.50
2023-02-22T00:26:57.635Z,10.85
2023-02-22T00:29:25.715Z,8.23
2023-02-22T00:31:52.788Z,10.13
2023-02-22T00:34:19.883Z,8.77
2023-02-22T00:36:50.650Z,10.15
2023-02-22T00:39:18.194Z,9.18
2023-02-22T00:41:45.457Z,8.55
2023-02-22T00:44:12.661Z,7.80
2023-02-22T00:46:39.694Z,9.85
2023-02-22T00:49:07.023Z,10.38
2023-02-22T00:51:34.009Z,10.68
2023-02-22T00:54:01.428Z,8.18
2023-02-22T00:56:28.811Z,8.90
2023-02-22T00:58:55.947Z,9.73
2023-02-22T01:01:24.228Z,7.57
2023-02-22T01:03:51.615Z,9.90
2023-02-22T01:06:18.921Z,9.52
2023-02-22T01:08:47.444Z,9.07
2023-02-22T01:11:17.318Z,9.65
2023-02-22T01:13:47.739Z,12.80
2023-02-22T01:16:14.836Z,9.82
2023-02-22T01:18:41.839Z,10.35
2023-02-22T01:21:09.033Z,9.90
2023-02-22T01:23:36.001Z,9.82
2023-02-22T01:26:05.743Z,10.07
2023-02-22T01:28:34.499Z,9.98
2023-02-22T01:31:02.845Z,10.18
2023-02-22T01:33:30.264Z,10.45
2023-02-22T01:35:58.025Z,9.15
2023-02-22T01:38:24.990Z,12.35
2023-02-22T01:40:52.363Z,10.95
2023-02-22T01:43:32.022Z,10.20
2023-02-22T01:46:22.639Z,8.48
2023-02-22T01:49:03.148Z,9.80
2023-02-22T01:51:37.874Z,8.52
2023-02-22T01:54:18.285Z,9.02
2023-02-22T01:57:08.305Z,9.00
2023-02-22T01:59:43.299Z,6.65
2023-02-22T02:02:11.413Z,7.15
2023-02-22T02:04:38.714Z,6.35
2023-02-22T02:07:08.822Z,11.20
2023-02-22T02:10:14.532Z,7.07
2023-02-22T02:12:53.192Z,7.35
2023-02-22T02:15:33.288Z,8.38
2023-02-22T02:18:06.201Z,7.75
2023-02-22T02:21:10.322Z,8.32
2023-02-22T02:24:11.921Z,5.93
2023-02-22T02:27:06.227Z,8.45
2023-02-22T02:29:53.137Z,5.70
2023-02-22T02:32:23.115Z,4.40
2023-02-22T02:34:55.436Z,7.18
2023-02-22T02:37:57.710Z,6.53
2023-02-22T02:40:42.132Z,6.80
2023-02-22T02:43:53.576Z,4.05
2023-02-22T02:46:45.599Z,5.00
2023-02-22T02:49:24.126Z,4.95
2023-02-22T02:51:54.985Z,1.25
2023-02-22T02:54:24.050Z,3.97
2023-02-22T02:56:51.644Z,7.53
2023-02-22T02:59:33.691Z,6.40
2023-02-22T03:03:02.042Z,6.20
2023-02-22T03:06:16.017Z,7.05
2023-02-22T03:11:35.924Z,1.80
2023-02-22T03:14:11.119Z,6.25
2023-02-22T03:17:00.566Z,5.05
2023-02-22T03:19:37.398Z,6.40
2023-02-22T03:22:14.120Z,4.85
2023-02-22T03:25:08.844Z,5.32
2023-02-22T03:27:53.373Z,4.75
2023-02-22T03:30:31.760Z,6.35
2023-02-22T03:33:09.487Z,5.70
2023-02-22T03:35:50.786Z,5.47
2023-02-22T03:38:21.042Z,4.60
2023-02-22T03:40:54.439Z,5.85
2023-02-22T03:43:34.874Z,2.58
2023-02-22T03:46:03.912Z,5.43
2023-02-22T03:48:54.536Z,5.90
2023-02-22T03:51:22.694Z,3.00
2023-02-22T03:53:49.986Z,2.83
2023-02-22T03:56:28.444Z,4.70
2023-02-22T03:58:56.042Z,2.38
2023-02-22T04:01:23.848Z,5.35
2023-02-22T04:03:51.092Z,4.45
2023-02-22T04:06:18.025Z,5.25
2023-02-22T04:08:44.954Z,4.43
2023-02-22T04:11:14.011Z,5.30
2023-02-22T04:13:41.005Z,3.22
2023-02-22T04:16:08.237Z,5.80
2023-02-22T04:18:35.592Z,4.78
2023-02-22T04:21:02.665Z,5.28
2023-02-22T04:23:29.654Z,6.20
2023-02-22T04:25:56.708Z,5.40
2023-02-22T04:28:23.673Z,5.95
2023-02-22T04:30:50.712Z,2.33
2023-02-22T04:33:17.792Z,3.85
2023-02-22T04:35:44.761Z,4.07
2023-02-22T04:38:11.742Z,4.03
2023-02-22T04:40:39.044Z,5.78
2023-02-22T04:43:06.042Z,4.65
2023-02-22T04:45:33.098Z,6.28
2023-02-22T04:48:00.042Z,5.28
2023-02-22T04:50:28.233Z,6.18
2023-02-22T04:52:56.044Z,4.50
2023-02-22T04:55:23.196Z,5.30
2023-02-22T04:57:50.285Z,4.78
2023-02-22T05:00:21.532Z,4.85
2023-02-22T05:02:50.753Z,5.22
2023-02-22T05:05:21.588Z,3.80
2023-02-22T05:07:49.677Z,4.10
2023-02-22T05:10:17.511Z,5.38
2023-02-22T05:12:44.537Z,2.10
2023-02-22T05:15:15.682Z,5.00
2023-02-22T05:17:42.698Z,6.75
2023-02-22T05:20:22.488Z,4.85
2023-02-22T05:22:49.671Z,4.55
2023-02-22T05:25:16.716Z,5.80
2023-02-22T05:27:43.804Z,3.63
2023-02-22T05:30:12.155Z,4.25
2023-02-22T05:32:39.381Z,3.92
2023-02-22T05:35:08.411Z,4.50
2023-02-22T05:37:36.995Z,5.05
2023-02-22T05:40:04.662Z,4.55
2023-02-22T05:42:31.631Z,5.97
2023-02-22T05:44:59.900Z,3.65
2023-02-22T05:47:27.766Z,5.88
2023-02-22T05:49:54.772Z,5.40
2023-02-22T05:52:21.790Z,4.93
2023-02-22T05:54:48.756Z,6.13
2023-02-22T05:57:15.730Z,5.30
2023-02-22T05:59:43.192Z,5.93
2023-02-22T06:02:10.264Z,6.05
2023-02-22T06:04:37.287Z,5.22
2023-02-22T06:07:04.297Z,4.90
2023-02-22T06:09:31.646Z,6.55
2023-02-22T06:11:58.620Z,5.85
2023-02-22T06:14:25.555Z,6.15
2023-02-22T06:16:54.911Z,5.40
2023-02-22T06:19:21.934Z,5.05
2023-02-22T06:21:56.377Z,6.55
2023-02-22T06:24:24.088Z,4.93
2023-02-22T06:27:00.510Z,3.97
2023-02-22T06:29:29.870Z,3.13
2023-02-22T06:31:57.022Z,3.15
2023-02-22T06:34:23.991Z,3.60
2023-02-22T06:36:50.968Z,4.63
2023-02-22T06:39:19.047Z,3.53
2023-02-22T06:41:47.592Z,5.05
2023-02-22T06:44:15.559Z,4.13
2023-02-22T06:46:51.198Z,7.40
2023-02-22T06:49:20.408Z,2.13
2023-02-22T06:51:47.880Z,0.70
2023-02-22T06:54:15.101Z,1.27
2023-02-22T06:56:42.065Z,0.30
2023-02-22T06:59:09.095Z,0.50
2023-02-22T07:01:36.760Z,0.73
2023-02-22T07:04:03.797Z,0.50
2023-02-22T07:06:30.794Z,0.45
2023-02-22T07:08:57.873Z,0.93
2023-02-22T07:11:25.254Z,0.80
2023-02-22T07:13:52.326Z,0.40
2023-02-22T07:16:19.438Z,0.90
2023-02-22T07:18:46.757Z,0.90
2023-02-22T07:21:13.780Z,0.70
2023-02-22T07:23:40.710Z,0.93
2023-02-22T07:26:07.754Z,1.35
2023-02-22T07:28:34.694Z,0.85
2023-02-22T07:31:01.865Z,0.80
2023-02-22T07:33:28.930Z,0.73
2023-02-22T07:35:55.939Z,0.68
2023-02-22T07:38:22.907Z,1.00
2023-02-22T07:40:49.987Z,1.15
2023-02-22T07:43:22.999Z,1.00
2023-02-22T07:48:21.101Z,1.35
2023-02-22T07:50:48.118Z,1.15
2023-02-22T07:53:30.318Z,1.17
2023-02-22T07:55:59.034Z,0.90
2023-02-22T07:58:28.908Z,1.05
2023-02-22T08:00:56.427Z,0.70
2023-02-22T08:03:25.906Z,1.10
2023-02-22T08:05:56.839Z,1.17
2023-02-22T08:08:24.634Z,0.90
2023-02-22T08:10:52.408Z,1.23
2023-02-22T08:13:20.056Z,0.95
2023-02-22T08:15:49.796Z,0.75
2023-02-22T08:18:19.649Z,0.90
2023-02-22T08:20:49.325Z,1.05
2023-02-22T08:23:18.289Z,1.20
2023-02-22T08:25:45.437Z,0.80
2023-02-22T08:28:16.784Z,1.27
2023-02-22T08:30:43.985Z,0.93
2023-02-22T08:33:15.887Z,0.75
2023-02-22T08:35:43.338Z,0.75
2023-02-22T08:38:27.064Z,1.23
2023-02-22T08:40:54.245Z,1.50
2023-02-22T08:43:22.605Z,1.27
2023-02-22T08:45:51.883Z,1.23
2023-02-22T08:48:19.759Z,1.10
2023-02-22T08:50:47.034Z,1.20
2023-02-22T08:53:16.265Z,0.88
2023-02-22T08:55:44.115Z,1.20
2023-02-22T08:58:12.242Z,0.90
2023-02-22T09:00:41.470Z,1.27
2023-02-22T09:03:13.364Z,1.23
2023-02-22T09:05:44.614Z,1.35
2023-02-22T09:08:11.775Z,0.98
2023-02-22T09:10:39.047Z,1.25
2023-02-22T09:13:06.440Z,0.93
2023-02-22T09:15:36.170Z,1.10
2023-02-22T09:18:05.130Z,0.82
2023-02-22T09:20:32.145Z,1.30
2023-02-22T09:22:59.637Z,1.05
2023-02-22T09:25:27.308Z,0.75
2023-02-22T09:27:55.462Z,1.23
2023-02-22T09:30:32.130Z,0.60
2023-02-22T09:33:09.931Z,1.70
2023-02-22T09:35:46.426Z,1.13
2023-02-22T09:38:23.167Z,0.68
2023-02-22T09:40:55.353Z,1.10
2023-02-22T09:43:37.497Z,0.65
2023-02-22T09:46:37.899Z,0.85
2023-02-22T09:50:15.621Z,0.93
2023-02-22T09:53:15.419Z,1.02
2023-02-22T09:55:52.613Z,1.08
2023-02-22T09:58:45.950Z,0.98
2023-02-22T10:01:28.102Z,1.83
2023-02-22T10:04:13.649Z,1.52
2023-02-22T10:06:48.164Z,0.90
2023-02-22T10:09:15.697Z,0.93
2023-02-22T10:12:40.892Z,1.58
2023-02-22T10:15:45.772Z,1.90
2023-02-22T10:18:56.780Z,0.93
2023-02-22T10:21:27.904Z,1.23
2023-02-22T10:24:27.399Z,1.30
2023-02-22T10:26:56.761Z,0.90
2023-02-22T10:29:51.817Z,1.10
2023-02-22T10:32:36.149Z,1.67
2023-02-22T10:35:10.900Z,0.80
2023-02-22T10:37:38.506Z,0.93
2023-02-22T10:40:32.202Z,0.75
2023-02-22T10:43:06.572Z,0.98
2023-02-22T10:45:37.098Z,0.60
2023-02-22T10:48:09.447Z,1.75
2023-02-22T10:50:41.231Z,1.20
2023-02-22T10:53:10.192Z,1.25
2023-02-22T10:56:21.341Z,1.35
2023-02-22T10:58:55.234Z,0.98
2023-02-22T11:01:31.131Z,0.95
2023-02-22T11:04:22.315Z,1.83
2023-02-22T11:07:18.046Z,1.23
2023-02-22T11:10:02.731Z,1.30
2023-02-22T11:12:32.559Z,1.45
2023-02-22T11:15:19.772Z,1.20
2023-02-22T11:17:50.954Z,0.73
2023-02-22T11:20:27.863Z,1.25
2023-02-22T11:23:01.155Z,1.45
2023-02-22T11:25:36.228Z,0.70
2023-02-22T11:28:31.017Z,1.70
2023-02-22T11:31:16.033Z,0.68
2023-02-22T11:34:03.824Z,1.92
2023-02-22T11:36:42.407Z,1.17
2023-02-22T11:39:28.001Z,1.25
2023-02-22T11:41:58.118Z,1.05
2023-02-22T11:44:30.046Z,1.15
2023-02-22T11:47:07.069Z,1.10
2023-02-22T11:49:39.535Z,1.13
2023-02-22T11:52:17.555Z,1.27
2023-02-22T11:55:32.682Z,1.20
2023-02-22T11:58:30.150Z,1.55
2023-02-22T12:01:26.630Z,1.48
2023-02-22T12:04:30.744Z,1.83
2023-02-22T12:07:27.281Z,2.03
2023-02-22T12:10:56.573Z,1.95
2023-02-22T12:13:44.944Z,1.90
2023-02-22T12:16:35.089Z,1.95
2023-02-22T12:19:36.172Z,2.15
2023-02-22T12:22:16.827Z,1.35
2023-02-22T12:24:50.041Z,1.20
2023-02-22T12:27:33.824Z,1.52
2023-02-22T12:30:23.635Z,0.90
2023-02-22T12:33:11.921Z,1.60
2023-02-22T12:35:46.220Z,1.73
2023-02-22T12:38:39.524Z,1.73
2023-02-22T12:41:27.953Z,2.38
2023-02-22T12:44:20.289Z,1.73
2023-02-22T12:46:53.570Z,2.38
2023-02-22T12:50:19.863Z,1.65
2023-02-22T12:52:57.966Z,2.00
2023-02-22T12:55:33.218Z,2.17
2023-02-22T12:58:20.424Z,2.00
2023-02-22T13:01:13.606Z,2.05
2023-02-22T13:03:43.901Z,2.88
2023-02-22T13:06:38.740Z,1.35
2023-02-22T13:09:37.375Z,1.60
2023-02-22T13:12:34.114Z,1.80
2023-02-22T13:15:27.681Z,2.33
2023-02-22T13:18:54.098Z,1.67
2023-02-22T13:21:45.533Z,1.92
2023-02-22T13:24:28.346Z,1.80
2023-02-22T13:27:40.819Z,2.75
2023-02-22T13:30:42.666Z,1.58
2023-02-22T13:33:20.514Z,2.33
2023-02-22T13:36:13.523Z,2.47
2023-02-22T13:39:07.763Z,2.20
2023-02-22T13:42:05.231Z,1.85
2023-02-22T13:45:18.358Z,2.00
2023-02-22T13:49:01.421Z,2.40
2023-02-22T13:51:48.183Z,1.45
2023-02-22T13:54:44.623Z,2.10
2023-02-22T13:57:48.246Z,3.22
2023-02-22T14:00:15.099Z,1.60
2023-02-22T14:03:15.308Z,2.65
2023-02-22T14:05:45.210Z,1.95
2023-02-22T14:08:17.546Z,1.50
2023-02-22T14:10:50.444Z,1.55
2023-02-22T14:13:26.774Z,1.58
2023-02-22T14:16:05.279Z,1.63
2023-02-22T14:18:43.411Z,2.65
2023-02-22T14:21:22.269Z,1.90
2023-02-22T14:23:56.947Z,1.75
2023-02-22T14:27:08.781Z,1.30
2023-02-22T14:29:36.140Z,1.48
2023-02-22T14:32:15.156Z,1.60
2023-02-22T14:34:53.959Z,1.23
2023-02-22T14:37:37.846Z,1.25
2023-02-22T14:40:20.204Z,2.22
2023-02-22T14:43:14.879Z,1.55
2023-02-22T14:45:56.376Z,1.60
2023-02-22T14:48:43.182Z,1.83
2023-02-22T14:51:29.780Z,1.85
2023-02-22T14:54:47.064Z,1.67
2023-02-22T14:57:26.338Z,2.03
2023-02-22T15:00:19.690Z,3.22
2023-02-22T15:02:50.181Z,2.00
2023-02-22T15:05:21.902Z,3.58
2023-02-22T15:07:59.206Z,2.20
2023-02-22T15:10:42.925Z,2.50
2023-02-22T15:13:20.610Z,2.78
2023-02-22T15:15:54.913Z,2.85
2023-02-22T15:18:35.701Z,3.05
2023-02-22T15:21:13.498Z,2.13
2023-02-22T15:23:50.056Z,3.45
2023-02-22T15:26:35.383Z,2.25
2023-02-22T15:29:15.115Z,3.03
2023-02-22T15:31:48.255Z,2.70
2023-02-22T15:34:15.532Z,2.03
2023-02-22T15:36:44.718Z,3.08
2023-02-22T15:39:29.786Z,4.70
2023-02-22T15:42:19.387Z,2.95
2023-02-22T15:44:48.944Z,1.40
2023-02-22T15:47:25.997Z,2.35
2023-02-22T15:50:25.350Z,2.10
2023-02-22T15:53:09.108Z,2.85
2023-02-22T15:55:40.573Z,4.50
2023-02-22T15:58:12.200Z,7.30
2023-02-22T16:01:00.179Z,15.18
2023-02-22T16:03:29.518Z,12.60
2023-02-22T16:05:58.503Z,9.27
2023-02-22T16:08:55.202Z,19.48
2023-02-22T16:11:32.476Z,22.15
2023-02-22T16:14:23.017Z,6.95
2023-02-22T16:16:50.214Z,6.85
2023-02-22T16:19:44.912Z,7.32
2023-02-22T16:22:26.734Z,13.60
2023-02-22T16:24:54.919Z,9.13
2023-02-22T16:27:24.632Z,9.18
2023-02-22T16:30:35.801Z,9.35
2023-02-22T16:33:13.610Z,7.38
2023-02-22T16:35:43.383Z,7.70
2023-02-22T16:38:16.903Z,6.85
2023-02-22T16:41:01.888Z,7.72
2023-02-22T16:43:34.449Z,3.90
2023-02-22T16:46:04.012Z,3.85
2023-02-22T16:48:33.149Z,6.85
2023-02-22T16:51:16.805Z,3.42
2023-02-22T16:53:44.632Z,3.08
2023-02-22T16:56:14.658Z,4.03
2023-02-22T16:58:42.159Z,5.18
2023-02-22T17:01:09.735Z,3.38
2023-02-22T17:03:36.856Z,3.83
2023-02-22T17:06:04.002Z,4.97
2023-02-22T17:08:32.512Z,3.47
2023-02-22T17:11:04.350Z,16.40
2023-02-22T17:13:31.471Z,18.35
2023-02-22T17:16:01.474Z,19.23
2023-02-22T17:18:33.923Z,23.73
2023-02-22T17:21:05.328Z,11.10
2023-02-22T17:23:32.274Z,3.38
2023-02-22T17:26:04.647Z,1.67
2023-02-22T17:28:32.064Z,1.45
2023-02-22T17:31:01.598Z,8.82
2023-02-22T17:33:36.660Z,13.25
2023-02-22T17:36:05.315Z,16.20
2023-02-22T17:38:32.487Z,15.77
2023-02-22T17:41:01.364Z,15.35
2023-02-22T17:43:28.998Z,17.52
2023-02-22T17:45:56.808Z,16.63
2023-02-22T17:48:24.583Z,17.70
2023-02-22T17:50:52.755Z,16.95
2023-02-22T17:53:22.839Z,16.50
2023-02-22T17:55:50.367Z,13.63
2023-02-22T17:58:18.430Z,15.38
2023-02-22T18:00:49.297Z,15.18
2023-02-22T18:03:25.344Z,15.52
2023-02-22T18:05:57.675Z,15.73
2023-02-22T18:08:28.270Z,15.23
2023-02-22T18:10:58.998Z,16.10
2023-02-22T18:13:27.741Z,14.68
2023-02-22T18:16:00.154Z,21.10
2023-02-22T18:18:28.352Z,19.40
2023-02-22T18:20:59.729Z,31.67
2023-02-22T18:23:29.493Z,5.97
2023-02-22T18:26:10.112Z,3.05
2023-02-22T18:28:39.809Z,2.45
2023-02-22T18:31:16.373Z,2.15
2023-02-22T18:33:45.109Z,1.48
2023-02-22T18:36:14.290Z,1.88
2023-02-22T18:38:43.524Z,1.27
2023-02-22T18:41:16.918Z,1.40
2023-02-22T18:43:44.167Z,1.63
2023-02-22T18:46:18.389Z,1.33
2023-02-22T18:48:48.429Z,2.13
2023-02-22T18:51:17.581Z,13.30
2023-02-22T18:53:47.591Z,14.65
2023-02-22T18:56:21.752Z,14.75
2023-02-22T18:58:54.466Z,12.43
2023-02-22T19:01:22.097Z,13.30
2023-02-22T19:03:49.594Z,11.82
2023-02-22T19:06:18.553Z,12.02
2023-02-22T19:08:47.103Z,12.73
2023-02-22T19:11:22.009Z,13.00
2023-02-22T19:13:52.421Z,11.55
2023-02-22T19:16:21.865Z,13.82
2023-02-22T19:18:52.520Z,14.07
2023-02-22T19:21:20.984Z,14.52
2023-02-22T19:23:49.135Z,11.85
2023-02-22T19:26:25.998Z,14.07
2023-02-22T19:28:56.296Z,12.13
2023-02-22T19:31:29.724Z,13.60
2023-02-22T19:34:05.996Z,15.15
2023-02-22T19:36:33.127Z,15.00
2023-02-22T19:39:02.978Z,15.25
2023-02-22T19:41:30.933Z,14.25
2023-02-22T19:43:58.817Z,17.05
2023-02-22T19:46:28.270Z,22.13
2023-02-22T19:48:55.673Z,7.60
2023-02-22T19:51:26.429Z,3.10
2023-02-22T19:53:57.213Z,2.17
2023-02-22T19:56:44.235Z,2.28
2023-02-22T19:59:16.673Z,2.22
2023-02-22T20:01:46.908Z,2.03
2023-02-22T20:04:24.553Z,2.15
2023-02-22T20:06:55.438Z,1.88
2023-02-22T20:09:37.376Z,2.15
2023-02-22T20:12:06.001Z,1.75
2023-02-22T20:14:34.223Z,1.90
2023-02-22T20:17:06.968Z,12.70
2023-02-22T20:19:34.002Z,12.60
2023-02-22T20:22:02.178Z,13.02
2023-02-22T20:24:29.174Z,13.80
2023-02-22T20:26:58.161Z,13.20
2023-02-22T20:29:33.011Z,14.85
2023-02-22T20:32:02.296Z,15.63
2023-02-22T20:34:38.360Z,11.88
2023-02-22T20:37:05.347Z,11.68
2023-02-22T20:39:32.522Z,14.45
2023-02-22T20:42:04.699Z,15.48
2023-02-22T20:44:32.013Z,22.40
2023-02-22T20:46:59.009Z,11.68
2023-02-22T20:49:27.429Z,4.75
2023-02-22T20:51:54.569Z,2.45
2023-02-22T20:54:21.519Z,2.08
2023-02-22T20:56:52.619Z,2.55
2023-02-22T20:59:20.722Z,1.80
2023-02-22T21:01:49.998Z,3.00
2023-02-22T21:04:17.630Z,3.28
2023-02-22T21:06:46.683Z,1.92
2023-02-22T21:09:18.131Z,2.45
2023-02-22T21:11:45.674Z,1.50
2023-02-22T21:14:18.497Z,12.27
2023-02-22T21:16:51.161Z,16.00
2023-02-22T21:19:25.521Z,25.20
2023-02-22T21:21:58.566Z,25.55
2023-02-22T21:24:27.716Z,21.13
2023-02-22T21:26:58.522Z,8.65
2023-02-22T21:29:26.108Z,4.40
2023-02-22T21:31:53.279Z,2.78
2023-02-22T21:34:21.184Z,3.13
2023-02-22T21:36:48.260Z,2.67
2023-02-22T21:39:18.404Z,2.90
2023-02-22T21:41:51.420Z,2.78
2023-02-22T21:46:48.801Z,4.72
2023-02-22T21:49:17.185Z,12.57
2023-02-22T21:51:44.924Z,11.13
2023-02-22T21:54:13.114Z,13.60
2023-02-22T21:56:43.047Z,12.57
2023-02-22T21:59:23.765Z,13.10
2023-02-22T22:01:56.461Z,13.00
2023-02-22T22:04:28.580Z,11.77
2023-02-22T22:06:58.896Z,13.23
2023-02-22T22:09:37.647Z,12.95
2023-02-22T22:12:05.513Z,12.98
2023-02-22T22:14:34.979Z,13.18
2023-02-22T22:17:05.544Z,12.95
2023-02-22T22:19:39.282Z,12.75
2023-02-22T22:22:08.742Z,12.38
2023-02-22T22:24:36.322Z,13.02
2023-02-22T22:27:12.200Z,12.90
2023-02-22T22:29:39.340Z,12.88
2023-02-22T22:32:06.619Z,13.75
2023-02-22T22:34:34.956Z,12.85
2023-02-22T22:37:01.903Z,12.38
2023-02-22T22:39:29.059Z,12.38
2023-02-22T22:41:56.038Z,12.98
2023-02-22T22:44:23.182Z,13.60
2023-02-22T22:46:53.751Z,13.00
2023-02-22T22:49:23.310Z,13.48
2023-02-22T22:51:50.439Z,14.27
2023-02-22T22:54:17.431Z,13.13
2023-02-22T22:56:44.933Z,12.98
2023-02-22T22:59:13.364Z,12.90
2023-02-22T23:01:46.731Z,12.80
2023-02-22T23:04:16.800Z,12.55
2023-02-22T23:06:52.514Z,12.25
2023-02-22T23:09:31.724Z,13.75
2023-02-22T23:12:08.953Z,12.68
2023-02-22T23:14:39.840Z,12.05
2023-02-22T23:17:15.328Z,12.73
2023-02-22T23:19:45.004Z,11.35
2023-02-22T23:22:14.398Z,14.43
2023-02-22T23:24:42.698Z,13.20
2023-02-22T23:27:12.241Z,11.65
2023-02-22T23:29:41.605Z,11.48
2023-02-22T23:32:09.333Z,13.95
2023-02-22T23:34:41.061Z,12.52
2023-02-22T23:37:10.460Z,11.68
2023-02-22T23:39:38.366Z,12.15
2023-02-22T23:42:08.743Z,12.32
2023-02-22T23:44:36.026Z,12.05
2023-02-22T23:47:03.982Z,11.48
2023-02-22T23:49:38.025Z,12.60
2023-02-22T23:52:08.448Z,17.27
2023-02-22T23:54:40.392Z,9.40
2023-02-22T23:57:08.926Z,4.37
2023-02-22T23:59:40.382Z,7.30
